createdAt,value
2019-06-07T00:02:16.548Z,17.47
2019-06-07T00:07:23.443Z,17.41
2019-06-07T00:12:30.431Z,17.41
2019-06-07T00:17:37.599Z,17.40
2019-06-07T00:22:44.475Z,17.39
2019-06-07T00:27:51.567Z,17.39
2019-06-07T00:32:58.446Z,17.36
2019-06-07T00:38:05.440Z,17.36
2019-06-07T00:43:15.165Z,17.31
2019-06-07T00:48:29.371Z,17.26
2019-06-07T00:53:32.502Z,17.21
2019-06-07T00:58:39.747Z,17.29
2019-06-07T01:03:47.274Z,17.29
2019-06-07T01:08:54.419Z,17.28
2019-06-07T01:14:01.451Z,17.32
2019-06-07T01:19:08.859Z,17.28
2019-06-07T01:24:19.908Z,17.23
2019-06-07T01:29:30.753Z,17.18
2019-06-07T01:34:36.252Z,17.11
2019-06-07T01:39:43.573Z,17.01
2019-06-07T01:44:51.259Z,16.76
2019-06-07T01:49:58.463Z,16.63
2019-06-07T01:55:06.393Z,16.63
2019-06-07T02:00:17.417Z,16.53
2019-06-07T02:05:30.936Z,16.44
2019-06-07T02:10:37.398Z,16.33
2019-06-07T02:15:44.441Z,16.26
2019-06-07T02:20:51.564Z,16.20
2019-06-07T02:25:58.431Z,16.13
2019-06-07T02:31:05.560Z,16.11
2019-06-07T02:36:12.534Z,16.07
2019-06-07T02:41:22.927Z,16.02
2019-06-07T02:46:40.104Z,15.96
2019-06-07T02:51:41.682Z,15.84
2019-06-07T02:56:58.025Z,15.84
2019-06-07T03:01:58.579Z,15.81
2019-06-07T03:07:06.048Z,15.74
2019-06-07T03:12:15.244Z,15.74
2019-06-07T03:17:48.739Z,15.77
2019-06-07T03:22:57.055Z,15.79
2019-06-07T03:28:04.518Z,15.84
2019-06-07T03:33:11.515Z,15.90
2019-06-07T03:38:18.506Z,15.98
2019-06-07T03:43:27.307Z,16.07
2019-06-07T03:48:36.406Z,16.19
2019-06-07T03:53:43.392Z,16.34
2019-06-07T03:58:50.746Z,16.48
2019-06-07T04:03:57.568Z,16.60
2019-06-07T04:09:05.297Z,16.67
2019-06-07T04:14:11.312Z,16.71
2019-06-07T04:19:18.440Z,16.74
2019-06-07T04:24:25.461Z,16.69
2019-06-07T04:29:41.360Z,16.71
2019-06-07T04:34:43.148Z,16.73
2019-06-07T04:39:51.925Z,16.79
2019-06-07T04:45:01.369Z,16.82
2019-06-07T04:50:09.621Z,16.84
2019-06-07T04:55:16.578Z,16.95
2019-06-07T05:00:49.900Z,16.84
2019-06-07T05:05:43.539Z,16.84
2019-06-07T05:10:49.427Z,16.81
2019-06-07T05:15:56.559Z,16.89
2019-06-07T05:21:03.521Z,17.16
2019-06-07T05:26:10.443Z,17.16
2019-06-07T05:31:17.530Z,17.20
2019-06-07T05:36:25.432Z,17.23
2019-06-07T05:41:34.165Z,17.29
2019-06-07T05:46:46.785Z,17.51
2019-06-07T05:51:50.548Z,17.58
2019-06-07T05:56:58.840Z,17.65
2019-06-07T06:02:21.716Z,17.65
2019-06-07T06:07:15.764Z,17.80
2019-06-07T06:12:34.634Z,17.97
2019-06-07T06:17:31.474Z,18.12
2019-06-07T06:22:43.424Z,18.22
2019-06-07T06:28:11.097Z,18.36
2019-06-07T06:32:58.386Z,18.50
2019-06-07T06:38:05.594Z,18.67
2019-06-07T06:43:13.500Z,18.82
2019-06-07T06:48:21.455Z,18.82
2019-06-07T06:53:28.456Z,18.84
2019-06-07T06:59:18.456Z,18.93
2019-06-07T07:04:03.577Z,19.03
2019-06-07T07:08:53.635Z,19.15
2019-06-07T07:14:01.859Z,19.33
2019-06-07T07:19:08.890Z,19.33
2019-06-07T07:24:21.613Z,19.46
2019-06-07T07:29:26.076Z,19.46
2019-06-07T07:34:36.885Z,19.64
2019-06-07T07:39:45.298Z,19.77
2019-06-07T07:44:54.613Z,19.82
2019-06-07T07:50:01.494Z,19.99
2019-06-07T07:55:09.141Z,20.13
2019-06-07T08:00:49.364Z,20.28
2019-06-07T08:05:39.968Z,20.48
2019-06-07T08:10:34.434Z,20.68
2019-06-07T08:15:42.655Z,20.73
2019-06-07T08:21:08.649Z,20.81
2019-06-07T08:26:01.042Z,20.81
2019-06-07T08:31:08.561Z,21.06
2019-06-07T08:36:25.118Z,21.12
2019-06-07T08:41:24.437Z,21.32
2019-06-07T08:46:32.445Z,21.63
2019-06-07T08:51:39.494Z,22.31
2019-06-07T08:56:46.451Z,23.27
2019-06-07T09:01:58.415Z,23.79
2019-06-07T09:07:18.114Z,24.67
2019-06-07T09:12:11.916Z,26.19
2019-06-07T09:17:19.387Z,27.44
2019-06-07T09:22:26.433Z,27.94
2019-06-07T09:27:33.477Z,28.01
2019-06-07T09:32:40.567Z,28.52
2019-06-07T09:38:07.713Z,29.03
2019-06-07T09:43:47.929Z,28.55
2019-06-07T09:48:11.569Z,27.87
2019-06-07T09:53:22.289Z,28.65
2019-06-07T10:03:33.451Z,29.21
2019-06-07T10:13:53.575Z,26.62
2019-06-07T10:19:01.607Z,26.12
2019-06-07T10:24:09.751Z,26.12
2019-06-07T10:29:16.691Z,26.61
2019-06-07T10:34:23.577Z,26.71
2019-06-07T10:39:30.447Z,26.71
2019-06-07T10:44:37.478Z,26.55
2019-06-07T10:49:46.236Z,27.17
2019-06-07T10:54:53.574Z,27.79
2019-06-07T11:00:00.458Z,29.02
2019-06-07T11:05:10.115Z,29.02
2019-06-07T11:10:19.997Z,28.64
2019-06-07T11:15:26.433Z,28.19
2019-06-07T11:20:33.538Z,28.26
2019-06-07T11:25:40.564Z,27.78
2019-06-07T11:30:48.707Z,27.65
2019-06-07T11:35:55.569Z,27.87
2019-06-07T11:41:02.469Z,28.00
2019-06-07T11:46:09.463Z,27.82
2019-06-07T11:51:16.449Z,27.69
2019-06-07T11:56:23.445Z,27.42
2019-06-07T12:01:30.463Z,27.51
2019-06-07T12:06:37.515Z,28.27
2019-06-07T12:11:45.236Z,29.12
2019-06-07T12:16:52.448Z,29.80
2019-06-07T12:21:59.444Z,30.18
2019-06-07T12:27:07.227Z,30.35
2019-06-07T12:32:15.623Z,30.80
2019-06-07T12:37:32.768Z,31.14
2019-06-07T12:42:30.291Z,31.14
2019-06-07T12:47:37.555Z,30.94
2019-06-07T12:52:44.446Z,30.71
2019-06-07T12:57:51.607Z,30.70
2019-06-07T13:02:58.512Z,32.17
2019-06-07T13:08:05.568Z,32.17
2019-06-07T13:13:12.589Z,34.01
2019-06-07T13:18:21.245Z,34.33
2019-06-07T13:23:28.546Z,34.33
2019-06-07T13:28:36.743Z,34.77
2019-06-07T13:33:46.021Z,35.41
2019-06-07T13:38:53.247Z,35.41
2019-06-07T13:44:00.406Z,35.89
2019-06-07T13:49:08.439Z,36.01
2019-06-07T13:54:16.578Z,35.83
2019-06-07T13:59:24.561Z,35.32
2019-06-07T14:04:31.468Z,35.10
2019-06-07T14:09:38.444Z,35.10
2019-06-07T14:14:45.440Z,35.78
2019-06-07T14:19:52.480Z,35.78
2019-06-07T14:24:59.860Z,36.11
2019-06-07T14:30:11.676Z,36.16
2019-06-07T14:35:19.875Z,36.62
2019-06-07T14:40:28.025Z,36.51
2019-06-07T14:45:35.439Z,36.51
2019-06-07T14:50:42.593Z,36.71
2019-06-07T14:55:51.110Z,36.67
2019-06-07T15:00:58.439Z,36.67
2019-06-07T15:06:05.442Z,36.58
2019-06-07T15:11:12.452Z,36.75
2019-06-07T15:16:19.456Z,36.91
2019-06-07T15:21:26.723Z,36.96
2019-06-07T15:26:34.558Z,36.71
2019-06-07T15:31:41.458Z,36.59
2019-06-07T15:36:49.270Z,36.59
2019-06-07T15:41:56.453Z,36.55
2019-06-07T15:47:03.605Z,36.42
2019-06-07T15:52:10.585Z,36.67
2019-06-07T15:57:17.455Z,36.62
2019-06-07T16:02:24.510Z,36.62
2019-06-07T16:07:32.012Z,36.46
2019-06-07T16:12:40.794Z,36.74
2019-06-07T16:17:47.291Z,36.74
2019-06-07T16:22:54.580Z,37.08
2019-06-07T16:28:01.533Z,36.66
2019-06-07T16:33:08.566Z,36.66
2019-06-07T16:38:15.528Z,36.39
2019-06-07T16:43:22.858Z,36.39
2019-06-07T16:48:29.650Z,36.05
2019-06-07T16:53:38.186Z,36.05
2019-06-07T16:58:46.506Z,36.05
2019-06-07T17:03:53.475Z,35.87
2019-06-07T17:09:00.456Z,35.53
2019-06-07T17:14:08.573Z,35.52
2019-06-07T17:19:15.617Z,35.41
2019-06-07T17:24:26.583Z,35.23
2019-06-07T17:29:32.115Z,35.06
2019-06-07T17:34:39.881Z,34.87
2019-06-07T17:39:48.719Z,34.85
2019-06-07T17:44:56.627Z,34.54
2019-06-07T17:50:03.897Z,33.52
2019-06-07T17:55:13.058Z,33.52
2019-06-07T18:00:29.376Z,33.11
2019-06-07T18:05:30.416Z,32.70
2019-06-07T18:10:39.670Z,32.24
2019-06-07T18:15:51.760Z,31.23
2019-06-07T18:20:57.606Z,31.23
2019-06-07T18:26:04.610Z,29.99
2019-06-07T18:31:11.673Z,29.43
2019-06-07T18:38:11.679Z,29.05
2019-06-07T18:43:18.473Z,28.29
2019-06-07T18:48:25.623Z,28.29
2019-06-07T18:53:35.301Z,27.47
2019-06-07T18:58:43.622Z,27.47
2019-06-07T19:03:52.021Z,27.07
2019-06-07T19:08:59.614Z,26.75
2019-06-07T19:14:07.259Z,26.44
2019-06-07T19:19:13.595Z,26.16
2019-06-07T19:24:22.587Z,25.89
2019-06-07T19:29:31.436Z,25.61
2019-06-07T19:34:42.123Z,25.33
2019-06-07T19:39:49.595Z,25.12
2019-06-07T19:45:09.645Z,24.70
2019-06-07T19:50:07.943Z,24.53
2019-06-07T19:55:15.593Z,24.53
2019-06-07T20:00:23.495Z,24.25
2019-06-07T20:05:33.737Z,24.25
2019-06-07T20:10:40.613Z,24.14
2019-06-07T20:15:49.176Z,23.90
2019-06-07T20:20:58.539Z,23.90
2019-06-07T20:26:06.811Z,23.81
2019-06-07T20:31:13.677Z,23.70
2019-06-07T20:36:20.683Z,23.52
2019-06-07T20:41:27.593Z,23.37
2019-06-07T20:46:35.672Z,23.32
2019-06-07T20:51:42.590Z,23.23
2019-06-07T20:56:49.604Z,23.14
2019-06-07T21:01:56.618Z,22.99
2019-06-07T21:07:05.438Z,22.94
2019-06-07T21:12:12.619Z,22.94
2019-06-07T21:17:19.626Z,22.78
2019-06-07T21:22:26.594Z,22.71
2019-06-07T21:27:34.733Z,22.66
2019-06-07T21:32:43.622Z,22.66
2019-06-07T21:37:51.690Z,22.53
2019-06-07T21:42:58.604Z,22.43
2019-06-07T21:48:07.077Z,22.39
2019-06-07T21:53:15.463Z,22.35
2019-06-07T21:58:27.614Z,22.35
2019-06-07T22:03:34.632Z,22.25
2019-06-07T22:08:42.255Z,22.19
2019-06-07T22:13:48.390Z,22.19
2019-06-07T22:18:55.733Z,22.12
2019-06-07T22:24:02.854Z,22.04
2019-06-07T22:29:12.414Z,21.98
2019-06-07T22:34:19.456Z,21.90
2019-06-07T22:39:26.537Z,21.84
2019-06-07T22:44:33.605Z,21.74
2019-06-07T22:49:42.453Z,21.68
2019-06-07T22:54:49.446Z,21.62
2019-06-07T22:59:57.912Z,21.55
2019-06-07T23:05:04.993Z,21.49
2019-06-07T23:10:11.451Z,21.40
2019-06-07T23:15:21.585Z,21.34
2019-06-07T23:20:29.526Z,21.24
2019-06-07T23:25:38.578Z,21.24
2019-06-07T23:30:45.578Z,21.10
2019-06-07T23:35:52.576Z,21.05
2019-06-07T23:40:59.446Z,20.98
2019-06-07T23:46:06.573Z,20.98
2019-06-07T23:51:13.603Z,20.83
2019-06-07T23:56:22.381Z,20.77
